Time;durP1;ratioP1;P1;durP2;ratioP2;P2;SDS_P1;SDS_P2;PMS_P1;PMS_P2;Temp;Humidity;BMP_temperature;BMP_pressure;BME280_temperature;BME280_humidity;BME280_pressure;Samples;Min_cycle;Max_cycle;Signal;HPM_P1;HPM_P2
2022/05/03 00:01:42;;;;;;;13.97;9.10;;;;;;;-142.75;100.00;78145.38;5043455;28;20126;-65
2022/05/03 00:04:16;;;;;;;18.65;12.32;;;;;;;-142.75;100.00;78139.47;5043479;28;20494;-65
2022/05/03 00:06:53;;;;;;;14.33;8.27;;;;;;;-142.75;100.00;78147.34;5044474;28;20029;-65
2022/05/03 00:09:36;;;;;;;15.93;9.70;;;;;;;-142.75;100.00;78143.41;5042368;28;20047;-65
2022/05/03 00:12:08;;;;;;;21.40;12.77;;;;;;;-142.75;100.00;78137.50;5046774;28;20544;-65
2022/05/03 00:14:43;;;;;;;17.70;11.97;;;;;;;-142.75;100.00;78141.44;5044616;28;20114;-66
2022/05/03 00:17:09;;;;;;;14.03;9.70;;;;;;;-142.75;100.00;78135.53;5043606;28;20029;-65
2022/05/03 00:19:35;;;;;;;24.27;14.00;;;;;;;-142.75;100.00;78137.50;5041812;28;20512;-65
2022/05/03 00:22:01;;;;;;;18.02;11.52;;;;;;;-142.75;100.00;78133.56;5043195;28;20021;-65
2022/05/03 00:24:26;;;;;;;;;;;;;;;-142.75;100.00;78129.63;5041703;28;20087;-65
2022/05/03 00:26:52;;;;;;;18.50;10.63;;;;;;;-142.75;100.00;78127.66;5044315;28;19921;-65
2022/05/03 00:29:17;;;;;;;15.55;10.15;;;;;;;-142.75;100.00;78131.59;5043329;28;20029;-65
2022/05/03 00:31:44;;;;;;;15.70;10.00;;;;;;;-142.75;100.00;78135.53;5042694;28;20020;-65
2022/05/03 00:34:10;;;;;;;18.37;9.97;;;;;;;-142.75;100.00;78141.44;5043218;28;20029;-65
2022/05/03 00:36:36;;;;;;;16.50;11.33;;;;;;;-142.75;100.00;78145.38;5041285;28;20028;-66
2022/05/03 00:39:01;;;;;;;16.25;9.25;;;;;;;-142.75;100.00;78165.06;5043835;28;20066;-65
2022/05/03 00:41:43;;;;;;;15.38;8.80;;;;;;;-142.75;100.00;78188.72;5047212;28;20029;-65
2022/05/03 00:47:20;;;;;;;17.47;11.53;;;;;;;-142.75;100.00;78204.47;5042480;28;20035;-65
2022/05/03 00:50:08;;;;;;;20.87;12.60;;;;;;;-142.75;100.00;78196.59;5042580;28;20033;-65
2022/05/03 00:52:45;;;;;;;23.60;13.77;;;;;;;-142.75;100.00;78194.63;5043476;28;20033;-65
2022/05/03 00:55:13;;;;;;;22.33;13.37;;;;;;;-142.75;100.00;78190.69;5042452;28;20495;-66
2022/05/03 00:57:50;;;;;;;19.07;11.80;;;;;;;-142.75;100.00;78188.72;5041024;28;20036;-66
2022/05/03 01:00:15;;;;;;;15.82;10.32;;;;;;;-142.75;100.00;78206.44;5042783;28;20429;-65
2022/05/03 01:03:02;;;;;;;17.73;9.93;;;;;;;-142.75;100.00;78208.41;5040967;28;20025;-66
2022/05/03 01:05:53;;;;;;;17.98;9.20;;;;;;;-142.75;100.00;78208.41;5042033;28;20169;-66
2022/05/03 01:08:33;;;;;;;16.50;9.27;;;;;;;-142.75;100.00;78214.31;5024107;28;20048;-66
2022/05/03 01:11:23;;;;;;;13.90;8.73;;;;;;;-142.75;100.00;78234.00;5042431;28;20033;-65
2022/05/03 01:14:04;;;;;;;17.17;10.03;;;;;;;-142.75;100.00;78228.09;5041595;28;20070;-66
2022/05/03 01:16:39;;;;;;;26.77;13.60;;;;;;;-142.75;100.00;78232.03;5042145;28;20036;-66
2022/05/03 01:19:27;;;;;;;21.13;12.60;;;;;;;-142.75;100.00;78243.84;5041184;28;20509;-65
2022/05/03 01:22:30;;;;;;;18.73;12.07;;;;;;;-142.75;100.00;78247.78;5041200;28;20037;-66
2022/05/03 01:25:14;;;;;;;21.13;12.10;;;;;;;-142.75;100.00;78253.69;5041820;28;20528;-65
2022/05/03 01:27:45;;;;;;;20.93;12.43;;;;;;;-142.75;100.00;78261.56;5042731;28;20032;-66
2022/05/03 01:30:13;;;;;;;18.77;11.30;;;;;;;-142.75;100.00;78271.41;5040828;28;20478;-66
2022/05/03 01:32:46;;;;;;;17.53;11.40;;;;;;;-142.75;100.00;78271.41;5041493;28;20121;-66
2022/05/03 01:35:14;;;;;;;29.17;15.93;;;;;;;-142.75;100.00;78245.81;5042715;28;20052;-66
2022/05/03 01:37:56;;;;;;;24.20;13.33;;;;;;;-142.75;100.00;78243.84;5040489;28;20029;-66
2022/05/03 01:40:45;;;;;;;26.00;14.27;;;;;;;-142.75;100.00;78235.97;5039904;28;20021;-66
2022/05/03 01:43:29;;;;;;;29.27;16.60;;;;;;;-142.75;100.00;78228.09;5042090;28;20070;-66
2022/05/03 01:46:05;;;;;;;25.30;14.10;;;;;;;-142.75;100.00;78235.97;5043406;28;20020;-66
2022/05/03 01:52:13;;;;;;;26.70;14.00;;;;;;;-142.75;100.00;78243.84;5045275;28;20036;-66
2022/05/03 01:55:01;;;;;;;22.00;12.60;;;;;;;-142.75;100.00;78243.84;5042676;28;20029;-66
2022/05/03 01:57:45;;;;;;;30.20;17.00;;;;;;;-142.75;100.00;78224.16;5046441;28;20025;-66
2022/05/03 02:00:11;;;;;;;34.33;18.73;;;;;;;-142.75;100.00;78214.31;5046614;28;20508;-66
2022/05/03 02:03:07;;;;;;;33.45;18.52;;;;;;;-142.75;100.00;78214.31;5045260;28;20025;-66
2022/05/03 02:05:54;;;;;;;30.37;17.33;;;;;;;-142.75;100.00;78222.19;5044392;28;20025;-66
2022/05/03 02:08:22;;;;;;;29.13;16.38;;;;;;;-142.75;100.00;78230.06;5046839;28;20070;-66
2022/05/03 02:11:19;;;;;;;29.33;16.97;;;;;;;-142.75;100.00;78210.38;5042323;28;20025;-66
2022/05/03 02:16:54;;;;;;;30.10;15.67;;;;;;;-142.75;100.00;78208.41;5045573;28;20155;-66
2022/05/03 02:19:38;;;;;;;21.20;12.73;;;;;;;-142.75;100.00;78224.16;5045142;28;20021;-66
2022/05/03 02:22:25;;;;;;;25.80;14.40;;;;;;;-142.75;100.00;78212.34;5042027;28;20025;-66
2022/05/03 02:25:01;;;;;;;28.73;16.63;;;;;;;-142.75;100.00;78212.34;5045064;28;20033;-66
2022/05/03 02:27:31;;;;;;;27.65;15.20;;;;;;;-142.75;100.00;78239.91;5044341;28;20044;-66
2022/05/03 02:29:57;;;;;;;27.73;15.67;;;;;;;-142.75;100.00;78224.16;5044638;28;20094;-66
2022/05/03 02:32:26;;;;;;;;;;;;;;;-142.75;100.00;78212.34;5045340;28;20433;-66
2022/05/03 02:35:02;;;;;;;29.97;16.40;;;;;;;-142.75;100.00;78222.19;5044797;28;19921;-66
2022/05/03 02:37:37;;;;;;;27.20;15.97;;;;;;;-142.75;100.00;78212.34;5044580;28;20035;-66
2022/05/03 02:40:08;;;;;;;25.27;14.60;;;;;;;-142.75;100.00;78216.28;5044904;28;20022;-66
2022/05/03 02:42:35;;;;;;;20.63;12.70;;;;;;;-142.75;100.00;78208.41;5046585;28;20030;-66
2022/05/03 02:45:02;;;;;;;30.30;15.77;;;;;;;-142.75;100.00;78210.38;5044574;28;20103;-66
2022/05/03 02:47:42;;;;;;;26.43;13.77;;;;;;;-142.75;100.00;78218.25;5044964;28;20486;-66
2022/05/03 02:50:26;;;;;;;22.27;13.03;;;;;;;-142.75;100.00;78208.41;5044826;28;20069;-66
2022/05/03 02:53:02;;;;;;;28.17;15.67;;;;;;;-142.75;100.00;78216.28;5043230;28;20063;-66
2022/05/03 02:55:49;;;;;;;28.05;16.00;;;;;;;-142.75;100.00;78224.16;5045124;28;20033;-66
2022/05/03 02:58:33;;;;;;;25.27;14.20;;;;;;;-142.75;100.00;78232.03;5044057;28;20043;-66
2022/05/03 03:04:24;;;;;;;26.53;14.97;;;;;;;-142.75;100.00;78232.03;5045012;28;20068;-66
2022/05/03 03:06:55;;;;;;;22.80;13.00;;;;;;;-142.75;100.00;78239.91;5045371;28;20032;-67
2022/05/03 03:09:41;;;;;;;26.33;15.17;;;;;;;-142.75;100.00;78235.97;5043016;28;20036;-66
2022/05/03 03:12:37;;;;;;;22.98;13.38;;;;;;;-142.75;100.00;78253.69;5047710;28;20124;-66
2022/05/03 03:15:07;;;;;;;23.93;12.97;;;;;;;-142.75;100.00;78247.78;5043737;28;20114;-66
2022/05/03 03:17:35;;;;;;;23.33;13.43;;;;;;;-142.75;100.00;78245.81;5044430;28;20033;-66
2022/05/03 03:20:05;;;;;;;29.80;16.50;;;;;;;-142.75;100.00;78235.97;5043935;28;20367;-66
2022/05/03 03:22:37;;;;;;;28.27;15.70;;;;;;;-142.75;100.00;78235.97;5043594;28;20082;-66
2022/05/03 03:25:04;;;;;;;15.97;10.17;;;;;;;-142.75;100.00;78255.66;5044565;28;20032;-66
2022/05/03 03:27:33;;;;;;;18.97;10.97;;;;;;;-142.75;100.00;78243.84;5045071;28;20060;-66
2022/05/03 03:30:01;;;;;;;24.37;13.70;;;;;;;-142.75;100.00;78235.97;5042962;28;20032;-66
2022/05/03 03:32:27;;;;;;;27.47;15.23;;;;;;;-142.75;100.00;78220.22;5043509;28;20025;-66
2022/05/03 03:34:57;;;;;;;33.42;18.50;;;;;;;-142.75;100.00;78212.34;5041846;28;20055;-66
2022/05/03 03:37:24;;;;;;;37.43;19.87;;;;;;;-142.75;100.00;78200.53;5044249;28;20017;-66
2022/05/03 03:39:50;;;;;;;37.17;19.20;;;;;;;-142.75;100.00;78194.63;5043335;28;20402;-66
2022/05/03 03:42:15;;;;;;;37.67;19.63;;;;;;;-142.75;100.00;78204.47;5061030;22;20045;-65
2022/05/03 03:44:41;;;;;;;37.75;19.95;;;;;;;-142.75;100.00;78212.34;5029056;28;20025;-64
2022/05/03 03:47:06;;;;;;;29.30;16.17;;;;;;;-142.75;100.00;78222.19;5030264;28;20036;-65
2022/05/03 03:49:33;;;;;;;20.77;12.00;;;;;;;-142.75;100.00;78251.72;5029067;28;20025;-65
2022/05/03 03:51:59;;;;;;;24.17;12.73;;;;;;;-142.75;100.00;78255.66;5030014;28;20060;-65
2022/05/03 03:54:25;;;;;;;21.70;11.73;;;;;;;-142.75;100.00;78273.38;5030343;28;20029;-65
2022/05/03 03:56:52;;;;;;;;;;;;;;;-142.75;100.00;78279.28;5030655;28;20108;-65
2022/05/03 03:59:18;;;;;;;24.83;13.20;;;;;;;-142.75;100.00;78279.28;5030167;28;20111;-65
2022/05/03 04:01:44;;;;;;;21.63;12.45;;;;;;;-142.75;100.00;78291.09;5029850;28;20125;-64
2022/05/03 04:04:11;;;;;;;;;;;;;;;-142.75;100.00;78300.97;5030554;28;20025;-65
2022/05/03 04:06:37;;;;;;;22.10;11.60;;;;;;;-142.75;100.00;78297.00;5030086;28;19913;-65
2022/05/03 04:09:02;;;;;;;25.63;14.40;;;;;;;-142.75;100.00;78283.22;5029591;28;20036;-64
2022/05/03 04:11:27;;;;;;;32.30;17.48;;;;;;;-142.75;100.00;78267.47;5030346;28;20029;-66
2022/05/03 04:13:53;;;;;;;33.10;17.90;;;;;;;-142.75;100.00;78251.72;5028775;28;20037;-65
2022/05/03 04:16:19;;;;;;;37.08;19.40;;;;;;;-142.75;100.00;78243.84;5029802;28;20296;-65
2022/05/03 04:18:45;;;;;;;34.75;19.55;;;;;;;-142.75;100.00;78241.88;5029705;28;20033;-65
2022/05/03 04:21:18;;;;;;;31.92;16.65;;;;;;;-142.75;100.00;78235.97;5029524;28;20045;-65
2022/05/03 04:23:48;;;;;;;26.93;14.53;;;;;;;-142.75;100.00;78247.78;5029756;28;20029;-65
2022/05/03 04:26:14;;;;;;;18.60;11.63;;;;;;;-142.75;100.00;78249.75;5029630;28;20475;-65
2022/05/03 04:28:40;;;;;;;20.57;11.77;;;;;;;-142.75;100.00;78255.66;5029718;28;20029;-65
2022/05/03 04:31:05;;;;;;;15.10;9.52;;;;;;;-142.75;100.00;78267.47;5029212;28;20095;-65
2022/05/03 04:33:31;;;;;;;13.43;8.68;;;;;;;-142.75;100.00;78273.38;5029332;28;20025;-65
2022/05/03 04:35:56;;;;;;;32.83;9.13;;;;;;;-142.75;100.00;78295.06;5029448;28;20057;-65
2022/05/03 04:38:22;;;;;;;17.35;8.40;;;;;;;-142.75;100.00;78299.00;5029497;28;20080;-66
2022/05/03 04:40:47;;;;;;;15.15;8.85;;;;;;;-142.75;100.00;78312.78;5028004;28;20208;-65
2022/05/03 04:43:12;;;;;;;17.00;9.80;;;;;;;-142.75;100.00;78328.53;5030244;28;20055;-65
2022/05/03 04:45:38;;;;;;;17.08;10.75;;;;;;;-142.75;100.00;78350.19;5029048;28;20033;-63
2022/05/03 04:48:04;;;;;;;14.80;8.37;;;;;;;-142.75;100.00;78358.06;5029313;28;20021;-65
2022/05/03 04:50:29;;;;;;;14.05;9.00;;;;;;;-142.75;100.00;78340.34;5027715;28;20288;-65
2022/05/03 04:52:56;;;;;;;14.85;8.88;;;;;;;-142.75;100.00;78334.44;5029180;28;20068;-65
2022/05/03 04:55:23;;;;;;;20.03;11.80;;;;;;;-142.75;100.00;78300.97;5029219;28;20021;-65
2022/05/03 04:57:49;;;;;;;26.90;14.37;;;;;;;-142.75;100.00;78275.34;5029133;28;20076;-65
2022/05/03 05:00:14;;;;;;;27.92;14.82;;;;;;;-142.75;100.00;78255.66;5029004;28;20033;-65
2022/05/03 05:02:40;;;;;;;27.63;13.65;;;;;;;-142.75;100.00;78245.81;5028666;28;20030;-65
2022/05/03 05:05:06;;;;;;;24.10;13.75;;;;;;;-142.75;100.00;78234.00;5028094;28;20029;-65
2022/05/03 05:07:31;;;;;;;28.80;16.40;;;;;;;-142.75;100.00;78224.16;5028803;28;20083;-65
2022/05/03 05:12:40;;;;;;;29.53;15.13;;;;;;;-142.75;100.00;78194.63;5029663;28;20079;-65
2022/05/03 05:15:06;;;;;;;29.60;16.83;;;;;;;-142.75;100.00;78180.81;5028859;28;20429;-65
2022/05/03 05:17:34;;;;;;;28.83;16.77;;;;;;;-142.75;100.00;78157.19;5028798;28;20083;-65
2022/05/03 05:20:00;;;;;;;28.80;16.83;;;;;;;-142.75;100.00;78139.47;5028170;28;20053;-63
2022/05/03 05:22:25;;;;;;;34.85;17.35;;;;;;;-142.75;100.00;78131.59;5028332;28;20080;-65
2022/05/03 05:24:51;;;;;;;27.25;15.95;;;;;;;-142.75;100.00;78117.81;5028718;28;20067;-65
2022/05/03 05:27:16;;;;;;;29.58;16.27;;;;;;;-142.75;100.00;78098.13;5028695;28;20018;-65
2022/05/03 05:29:42;;;;;;;30.05;16.88;;;;;;;-142.75;100.00;78074.50;5027341;28;20029;-65
2022/05/03 05:32:07;;;;;;;31.45;16.80;;;;;;;-142.75;100.00;78066.63;5028250;28;20065;-66
2022/05/03 05:34:34;;;;;;;30.17;17.20;;;;;;;-142.75;100.00;78048.88;5028738;28;20024;-65
2022/05/03 05:36:59;;;;;;;33.97;17.47;;;;;;;-142.75;100.00;78031.16;5028519;28;20060;-65
2022/05/03 05:39:25;;;;;;;28.95;16.80;;;;;;;-142.75;100.00;78001.63;5010826;28;20462;-65
2022/05/03 05:41:59;;;;;;;30.90;17.27;;;;;;;-142.75;100.00;77976.03;5027658;28;20038;-65
2022/05/03 05:44:27;;;;;;;35.07;17.37;;;;;;;-142.75;100.00;77970.13;5028538;28;20025;-65
2022/05/03 05:46:52;;;;;;;31.00;17.67;;;;;;;-142.75;100.00;77928.78;5028694;28;20104;-65
2022/05/03 05:49:18;;;;;;;32.33;16.95;;;;;;;-142.75;100.00;77918.94;5028547;28;20105;-65
2022/05/03 05:51:45;;;;;;;29.13;16.65;;;;;;;-142.75;100.00;77893.31;5026711;28;20087;-65
2022/05/03 05:54:10;;;;;;;31.38;16.88;;;;;;;-142.75;100.00;77879.53;5028412;28;20040;-65
2022/05/03 05:56:36;;;;;;;33.58;17.15;;;;;;;-142.75;100.00;77850.00;5028260;28;20026;-65
2022/05/03 05:59:01;;;;;;;26.35;14.80;;;;;;;-142.75;100.00;77844.09;5028680;28;20025;-65
2022/05/03 06:01:39;;;;;;;27.42;15.48;;;;;;;-142.75;100.00;77830.31;5026969;28;20044;-65
2022/05/03 06:04:05;;;;;;;28.43;15.70;;;;;;;-142.75;100.00;77816.53;5027482;28;20018;-65
2022/05/03 06:06:32;;;;;;;31.63;16.30;;;;;;;-142.75;100.00;77818.50;5028559;28;20021;-65
2022/05/03 06:08:58;;;;;;;28.08;16.27;;;;;;;-142.75;100.00;77806.69;5027283;28;20025;-65
2022/05/03 06:11:23;;;;;;;28.25;16.23;;;;;;;-142.75;100.00;77798.81;5025863;28;20032;-65
2022/05/03 06:13:49;;;;;;;27.07;16.53;;;;;;;-142.75;100.00;77796.84;5028451;28;20112;-65
2022/05/03 06:16:15;;;;;;;28.05;16.10;;;;;;;-142.75;100.00;77790.94;5027175;28;20292;-65
2022/05/03 06:18:41;;;;;;;31.83;17.85;;;;;;;-142.75;100.00;77783.06;5027509;28;20083;-65
2022/05/03 06:21:07;;;;;;;28.92;16.70;;;;;;;-142.75;100.00;77767.31;5027075;28;20072;-65
2022/05/03 06:23:33;;;;;;;31.08;17.77;;;;;;;-142.75;100.00;77763.38;5027404;28;20025;-65
2022/05/03 06:25:58;;;;;;;31.75;17.83;;;;;;;-142.75;100.00;77751.56;5027386;28;20502;-65
2022/05/03 06:28:24;;;;;;;30.38;19.17;;;;;;;-142.75;100.00;77745.66;5027099;28;20079;-65
2022/05/03 06:30:49;;;;;;;31.35;17.13;;;;;;;-142.75;100.00;77741.72;5027059;28;20087;-66
2022/05/03 06:33:15;;;;;;;32.65;18.98;;;;;;;-142.75;100.00;77727.94;5030641;28;20494;-66
2022/05/03 06:35:40;;;;;;;36.65;17.90;;;;;;;-142.75;100.00;77716.09;5031026;28;20037;-65
2022/05/03 06:38:06;;;;;;;33.42;18.58;;;;;;;-142.75;100.00;77698.38;5029654;28;20107;-65
2022/05/03 06:40:31;;;;;;;33.83;18.67;;;;;;;-142.75;100.00;77680.66;5030523;28;20025;-64
2022/05/03 06:42:57;;;;;;;31.33;18.33;;;;;;;-142.75;100.00;77672.78;5031599;28;20052;-66
2022/05/03 06:45:22;;;;;;;29.42;18.38;;;;;;;-142.75;100.00;77660.97;5029538;28;20518;-65
2022/05/03 06:47:48;;;;;;;34.15;18.65;;;;;;;-142.75;100.00;77651.13;5032508;28;20017;-66
2022/05/03 06:50:14;;;;;;;30.77;18.42;;;;;;;-142.75;100.00;77643.25;5032637;28;20028;-66
2022/05/03 06:52:39;;;;;;;30.27;17.58;;;;;;;-142.75;100.00;77649.16;5031947;28;20033;-66
2022/05/03 06:55:05;;;;;;;28.95;17.58;;;;;;;-142.75;100.00;77637.34;5033426;28;20029;-66
2022/05/03 06:57:31;;;;;;;34.15;19.10;;;;;;;-142.75;100.00;77629.47;5033422;28;20061;-65
2022/05/03 06:59:56;;;;;;;30.83;17.88;;;;;;;-142.75;100.00;77617.66;5032135;28;20033;-66
2022/05/03 07:02:21;;;;;;;32.15;18.27;;;;;;;-142.75;100.00;77597.97;5033090;28;20053;-66
2022/05/03 07:04:47;;;;;;;30.85;18.25;;;;;;;-142.75;100.00;77584.19;5033335;28;20025;-66
2022/05/03 07:07:13;;;;;;;35.00;18.65;;;;;;;-142.75;100.00;77590.09;5033221;28;20052;-66
2022/05/03 07:09:39;;;;;;;30.48;17.70;;;;;;;-142.75;100.00;77558.59;5033157;28;20082;-66
2022/05/03 07:12:06;;;;;;;33.20;19.80;;;;;;;-142.75;100.00;77544.81;5033095;28;20053;-66
2022/05/03 07:14:31;;;;;;;36.25;20.40;;;;;;;-142.75;100.00;77529.06;5033106;28;20071;-66
2022/05/03 07:16:56;;;;;;;34.40;20.35;;;;;;;-142.75;100.00;77527.09;5032996;28;20515;-66
2022/05/03 07:22:45;;;;;;;35.90;20.55;;;;;;;-142.75;100.00;77479.84;5032624;28;20635;-66
2022/05/03 07:24:57;;;;;;;31.42;19.88;;;;;;;-142.75;100.00;77462.13;5031868;28;20116;-66
2022/05/03 07:27:22;;;;;;;35.97;19.85;;;;;;;-142.75;100.00;77446.34;5031513;28;20049;-65
2022/05/03 07:29:47;;;;;;;;;;;;;;;-142.75;100.00;77452.25;5033252;28;20017;-65
2022/05/03 07:32:12;;;;;;;33.95;19.85;;;;;;;-142.75;100.00;77436.50;5032189;28;19920;-65
2022/05/03 07:34:38;;;;;;;35.00;19.95;;;;;;;-142.75;100.00;77424.69;5032669;28;20034;-65
2022/05/03 07:37:03;;;;;;;;;;;;;;;-142.75;100.00;77428.63;5028135;28;20416;-65
2022/05/03 07:39:30;;;;;;;35.65;19.35;;;;;;;-142.75;100.00;77436.50;5025796;28;20013;-65
2022/05/03 07:41:57;;;;;;;32.17;18.83;;;;;;;-142.75;100.00;77442.41;5029533;28;20128;-66
2022/05/03 07:44:22;;;;;;;33.45;18.33;;;;;;;-142.75;100.00;77436.50;5028625;28;20029;-65
2022/05/03 07:46:48;;;;;;;34.53;20.15;;;;;;;-142.75;100.00;77420.75;5032394;28;20028;-65
2022/05/03 07:49:13;;;;;;;35.80;19.75;;;;;;;-142.75;100.00;77408.94;5032373;28;20061;-66
2022/05/03 07:51:41;;;;;;;32.47;19.13;;;;;;;-142.75;100.00;77389.25;5032073;28;21427;-66
2022/05/03 07:54:08;;;;;;;33.08;18.98;;;;;;;-142.75;100.00;77375.47;5032360;28;20498;-65
2022/05/03 07:56:33;;;;;;;33.17;18.33;;;;;;;-142.75;100.00;77387.28;5032115;28;20032;-65
2022/05/03 07:58:59;;;;;;;26.85;17.02;;;;;;;-142.75;100.00;77369.56;5032387;28;20021;-66
2022/05/03 08:01:24;;;;;;;29.13;16.80;;;;;;;-142.75;100.00;77357.75;5031794;28;20045;-66
2022/05/03 08:03:49;;;;;;;31.58;17.23;;;;;;;-142.75;100.00;77338.06;5030955;28;20040;-66
2022/05/03 08:06:14;;;;;;;;;;;;;;;-142.75;100.00;77316.41;5032599;28;20021;-66
2022/05/03 08:08:40;;;;;;;29.20;15.80;;;;;;;-142.75;100.00;77310.50;5030489;28;20297;-65
2022/05/03 08:11:05;;;;;;;26.52;14.48;;;;;;;-142.75;100.00;77290.81;5031707;28;20395;-65
2022/05/03 08:13:30;;;;;;;22.98;14.32;;;;;;;-142.75;100.00;77279.00;5032011;28;20021;-66
2022/05/03 08:15:55;;;;;;;;;;;;;;;-142.75;100.00;77261.28;5032394;28;20379;-65
2022/05/03 08:18:21;;;;;;;24.98;15.25;;;;;;;-142.75;100.00;77223.88;5029253;28;20349;-66
2022/05/03 08:20:46;;;;;;;;;;;;;;;-142.75;100.00;77217.97;5028764;28;20017;-66
2022/05/03 08:23:11;;;;;;;28.35;15.50;;;;;;;-142.75;100.00;77216.00;5030444;28;19917;-66
2022/05/03 08:25:37;;;;;;;26.02;16.45;;;;;;;-142.75;100.00;77204.19;5031558;28;20036;-66
2022/05/03 08:28:02;;;;;;;;;;;;;;;-142.75;100.00;77202.22;5030746;28;20013;-66
2022/05/03 08:30:28;;;;;;;22.98;11.68;;;;;;;-142.75;100.00;77188.44;5031332;28;19920;-64
2022/05/03 08:32:53;;;;;;;;;;;;;;;-142.75;100.00;77160.88;5031514;28;20024;-66
2022/05/03 08:35:21;;;;;;;21.48;13.93;;;;;;;-142.75;100.00;77166.78;5031524;28;20406;-66
2022/05/03 08:43:16;;;;;;;23.58;15.02;;;;;;;-142.75;100.00;77176.63;5029927;28;20071;-66
2022/05/03 08:45:45;;;;;;;;;;;;;;;-142.75;100.00;77182.53;5026444;28;20033;-67
2022/05/03 08:48:12;;;;;;;25.60;14.32;;;;;;;-142.75;100.00;77190.41;5031326;28;19913;-66
2022/05/03 08:50:38;;;;;;;28.17;16.10;;;;;;;-142.75;100.00;77202.22;5030711;28;20029;-66
2022/05/03 08:53:05;;;;;;;;;;;;;;;-142.75;100.00;77208.13;5029982;28;20626;-66
2022/05/03 08:55:31;;;;;;;26.95;16.48;;;;;;;-142.75;100.00;77212.06;5030759;28;19913;-66
2022/05/03 08:57:56;;;;;;;;;;;;;;;-142.75;100.00;77216.00;5028714;28;20087;-67
2022/05/03 09:00:22;;;;;;;28.33;16.98;;;;;;;-142.75;100.00;77239.63;5030760;28;19948;-66
2022/05/03 09:02:53;;;;;;;27.23;15.00;;;;;;;-142.75;100.00;77204.19;5030624;28;20071;-66
2022/05/03 09:05:19;;;;;;;27.70;15.35;;;;;;;-142.75;100.00;77184.50;5029895;28;20395;-66
2022/05/03 09:07:53;;;;;;;28.00;15.43;;;;;;;-142.75;100.00;77141.19;5030783;28;20029;-66
2022/05/03 09:10:20;;;;;;;24.67;14.63;;;;;;;-142.75;100.00;77121.50;5030535;28;20102;-65
2022/05/03 09:12:47;;;;;;;25.73;15.50;;;;;;;-142.75;100.00;77086.06;5030600;28;20025;-66
2022/05/03 09:15:13;;;;;;;29.73;17.02;;;;;;;-142.75;100.00;77082.13;5030801;28;20067;-66
2022/05/03 09:17:44;;;;;;;23.73;14.70;;;;;;;-142.75;100.00;77097.88;5030646;28;20033;-66
2022/05/03 09:26:19;;;;;;;26.75;14.63;;;;;;;-142.75;100.00;77168.75;5030503;28;20088;-66
2022/05/03 09:29:06;;;;;;;26.02;15.45;;;;;;;-142.75;100.00;77168.75;5030334;28;20026;-66
2022/05/03 09:31:37;;;;;;;27.80;15.77;;;;;;;-142.75;100.00;77182.53;5029142;28;20424;-66
2022/05/03 09:34:26;;;;;;;29.63;16.98;;;;;;;-142.75;100.00;77204.19;5030621;28;20078;-66
2022/05/03 09:36:54;;;;;;;28.90;16.25;;;;;;;-142.75;100.00;77219.94;5029318;28;20029;-66
2022/05/03 09:39:30;;;;;;;30.05;16.60;;;;;;;-142.75;100.00;77227.81;5030437;28;20125;-66
2022/05/03 09:42:28;;;;;;;29.17;17.42;;;;;;;-142.75;100.00;77216.00;5043142;22;20932;-66
2022/05/03 09:44:57;;;;;;;33.92;18.40;;;;;;;-142.75;100.00;77162.84;5009566;28;20034;-66
2022/05/03 09:47:34;;;;;;;31.83;16.92;;;;;;;-142.75;100.00;77107.72;5009251;28;20080;-66
2022/05/03 09:50:00;;;;;;;32.83;18.23;;;;;;;-142.75;100.00;77074.25;5008468;28;20022;-66
2022/05/03 09:52:38;;;;;;;26.33;16.48;;;;;;;-142.75;100.00;77058.50;5009313;28;20029;-66
2022/05/03 09:55:07;;;;;;;29.35;16.23;;;;;;;-142.75;100.00;77034.88;5011209;28;20019;-66
2022/05/03 09:57:34;;;;;;;26.77;15.57;;;;;;;-142.75;100.00;77030.94;5011282;28;20026;-66
2022/05/03 10:00:00;;;;;;;26.17;14.90;;;;;;;-142.75;100.00;77042.75;5010875;28;20037;-66
2022/05/03 10:02:28;;;;;;;27.23;15.85;;;;;;;-142.75;100.00;77046.69;5010485;28;20037;-66
2022/05/03 10:04:56;;;;;;;25.98;15.55;;;;;;;-142.75;100.00;77068.34;5010966;28;20026;-66
2022/05/03 10:07:22;;;;;;;25.88;15.95;;;;;;;-142.75;100.00;77056.53;5012565;28;20030;-66
2022/05/03 10:09:47;;;;;;;;;;;;;;;-142.75;100.00;77056.53;5015049;28;20040;-66
2022/05/03 10:12:14;;;;;;;24.73;14.25;;;;;;;-142.75;100.00;77025.03;5014283;28;19921;-66
2022/05/03 10:14:43;;;;;;;24.05;15.18;;;;;;;-142.75;100.00;77017.16;5014523;28;20040;-67
2022/05/03 10:23:01;;;;;;;31.83;16.58;;;;;;;-142.75;100.00;77034.88;5005293;28;20040;-66
2022/05/03 10:25:27;;;;;;;;;;;;;;;-142.75;100.00;77040.78;5013580;28;20447;-66
2022/05/03 10:27:54;;;;;;;28.52;16.33;;;;;;;-142.75;100.00;77054.56;5013203;28;19913;-67
2022/05/03 10:30:22;;;;;;;31.63;16.40;;;;;;;-142.75;100.00;77021.09;5014420;28;20022;-66
2022/05/03 10:33:19;;;;;;;30.00;15.07;;;;;;;-142.75;100.00;76983.69;5014113;28;20018;-66
2022/05/03 10:35:44;;;;;;;28.25;15.68;;;;;;;-142.75;100.00;76979.75;5014116;28;20034;-66
2022/05/03 10:38:09;;;;;;;;;;;;;;;-142.75;100.00;76977.78;5013197;28;20022;-66
2022/05/03 10:40:41;;;;;;;32.38;16.42;;;;;;;-142.75;100.00;76973.84;4996438;28;19925;-66
2022/05/03 10:43:12;;;;;;;34.67;17.58;;;;;;;-142.75;100.00;76983.69;5013919;28;20025;-66
2022/05/03 10:45:47;;;;;;;38.88;18.77;;;;;;;-142.75;100.00;77009.28;5013952;28;20037;-66
2022/05/03 10:48:30;;;;;;;34.03;17.67;;;;;;;-142.75;100.00;76979.75;5013799;28;20045;-66
2022/05/03 10:51:03;;;;;;;35.20;17.88;;;;;;;-142.75;100.00;76928.56;5013696;28;20022;-66
2022/05/03 10:53:31;;;;;;;38.58;18.45;;;;;;;-142.75;100.00;76836.03;5013825;28;20105;-66
2022/05/03 10:56:18;;;;;;;34.92;16.55;;;;;;;-142.75;100.00;76834.06;5013788;28;20095;-66
2022/05/03 10:59:03;;;;;;;33.80;17.10;;;;;;;-142.75;100.00;76792.75;5013648;28;20514;-67
2022/05/03 11:01:29;;;;;;;37.13;18.13;;;;;;;-142.75;100.00;76755.34;5013359;28;20030;-66
2022/05/03 11:03:57;;;;;;;37.60;17.70;;;;;;;-142.75;100.00;76767.16;5013744;28;20049;-66
2022/05/03 11:06:22;;;;;;;31.15;17.02;;;;;;;-142.75;100.00;76755.34;5013524;28;20026;-66
2022/05/03 11:11:43;;;;;;;30.70;15.65;;;;;;;-142.75;100.00;76731.72;5013063;28;19957;-66
2022/05/03 11:14:18;;;;;;;27.75;13.63;;;;;;;-142.75;100.00;76757.31;5013623;28;20080;-66
2022/05/03 11:16:51;;;;;;;30.17;14.70;;;;;;;-142.75;100.00;76802.56;5013544;28;20107;-66
2022/05/03 11:19:24;;;;;;;29.67;15.52;;;;;;;-142.75;100.00;76847.84;5012331;28;20474;-66
2022/05/03 11:21:51;;;;;;;32.33;15.98;;;;;;;-142.75;100.00;76853.75;5013176;28;20029;-67
2022/05/03 11:24:21;;;;;;;27.13;14.50;;;;;;;-142.75;100.00;76897.06;5013247;28;20025;-66
2022/05/03 11:26:48;;;;;;;36.50;16.70;;;;;;;-142.75;100.00;76928.56;5013200;28;20447;-67
2022/05/03 11:29:14;;;;;;;34.25;16.88;;;;;;;-142.75;100.00;76940.38;5013316;28;20021;-69
2022/05/03 11:31:46;;;;;;;32.63;16.52;;;;;;;-142.75;100.00;76960.06;5014233;28;20037;-66
2022/05/03 11:34:11;;;;;;;31.65;15.73;;;;;;;-142.75;100.00;76981.72;5012073;28;20591;-67
2022/05/03 11:36:38;;;;;;;31.15;14.88;;;;;;;-142.75;100.00;77019.13;5011854;28;20101;-66
2022/05/03 11:39:03;;;;;;;30.80;14.13;;;;;;;-142.75;100.00;77015.19;5012826;28;20507;-67
2022/05/03 11:41:29;;;;;;;32.65;15.52;;;;;;;-142.75;100.00;77013.22;5012831;28;20076;-66
2022/05/03 11:43:55;;;;;;;;;;;;;;;-142.75;100.00;77017.16;5012012;28;20721;-66
2022/05/03 11:46:22;;;;;;;32.95;16.55;;;;;;;-142.75;100.00;76989.59;5012858;28;19948;-67
2022/05/03 11:48:59;;;;;;;33.00;16.05;;;;;;;-142.75;100.00;76967.94;5012667;28;20395;-67
2022/05/03 11:57:14;;;;;;;31.15;14.55;;;;;;;-142.75;100.00;76920.69;5012725;28;20748;-66